createdAt,value
2022-08-22T00:02:24.592Z,91.93
2022-08-22T00:02:46.131Z,91.52
2022-08-22T00:03:00.778Z,91.12
2022-08-22T00:05:07.839Z,91.71
2022-08-22T00:07:52.783Z,90.98
2022-08-22T00:10:31.409Z,91.27
2022-08-22T00:13:05.950Z,90.62
2022-08-22T00:15:44.454Z,90.23
2022-08-22T00:18:41.479Z,90.10
2022-08-22T00:21:36.540Z,90.55
2022-08-22T00:24:17.450Z,90.88
2022-08-22T00:27:07.803Z,90.72
2022-08-22T00:29:39.839Z,90.23
2022-08-22T00:32:10.722Z,90.36
2022-08-22T00:34:43.328Z,90.47
2022-08-22T00:37:20.352Z,92.24
2022-08-22T00:40:26.651Z,90.35
2022-08-22T00:42:56.837Z,91.39
2022-08-22T00:46:24.313Z,92.19
2022-08-22T00:49:25.459Z,92.77
2022-08-22T00:52:14.868Z,91.75
2022-08-22T00:55:00.688Z,92.72
2022-08-22T00:57:30.641Z,92.99
2022-08-22T01:00:14.329Z,92.95
2022-08-22T01:02:56.602Z,92.99
2022-08-22T01:05:23.822Z,92.36
2022-08-22T01:08:18.535Z,92.65
2022-08-22T01:11:15.536Z,91.55
2022-08-22T01:14:04.254Z,92.09
2022-08-22T01:16:49.833Z,91.13
2022-08-22T01:19:29.208Z,90.87
2022-08-22T01:22:21.125Z,92.28
2022-08-22T01:25:25.932Z,91.55
2022-08-22T01:28:16.449Z,91.18
2022-08-22T01:31:08.846Z,92.02
2022-08-22T01:33:35.951Z,91.85
2022-08-22T01:36:29.515Z,92.28
2022-08-22T01:39:09.050Z,92.90
2022-08-22T01:42:00.592Z,93.21
2022-08-22T01:44:55.549Z,92.90
2022-08-22T01:47:56.175Z,92.27
2022-08-22T01:50:49.651Z,92.40
2022-08-22T01:53:25.820Z,92.01
2022-08-22T01:56:07.621Z,92.84
2022-08-22T01:58:42.661Z,92.36
2022-08-22T02:01:24.535Z,92.61
2022-08-22T02:04:18.583Z,92.98
2022-08-22T02:07:17.079Z,92.24
2022-08-22T02:10:05.060Z,92.37
2022-08-22T02:12:41.751Z,91.47
2022-08-22T02:15:21.233Z,92.13
2022-08-22T02:18:06.698Z,92.44
2022-08-22T02:20:55.635Z,92.28
2022-08-22T02:23:43.912Z,93.67
2022-08-22T02:26:41.393Z,92.49
2022-08-22T02:29:14.250Z,93.32
2022-08-22T02:32:04.961Z,93.29
2022-08-22T02:34:56.995Z,93.05
2022-08-22T02:37:39.475Z,93.45
2022-08-22T02:40:10.847Z,92.58
2022-08-22T02:42:59.830Z,92.29
2022-08-22T02:45:35.923Z,92.65
2022-08-22T02:48:34.256Z,92.74
2022-08-22T02:51:10.610Z,93.18
2022-08-22T02:54:00.223Z,93.44
2022-08-22T02:56:31.694Z,93.23
2022-08-22T02:59:13.189Z,92.63
2022-08-22T03:01:43.905Z,92.64
2022-08-22T03:04:25.931Z,93.20
2022-08-22T03:07:14.614Z,92.48
2022-08-22T03:09:49.614Z,93.06
2022-08-22T03:12:24.824Z,92.07
2022-08-22T03:15:00.534Z,91.56
2022-08-22T03:17:38.457Z,92.76
2022-08-22T03:20:35.303Z,92.34
2022-08-22T03:23:13.460Z,92.03
2022-08-22T03:25:52.874Z,93.23
2022-08-22T03:29:03.887Z,93.23
2022-08-22T03:31:32.308Z,92.45
2022-08-22T03:34:27.098Z,92.93
2022-08-22T03:37:20.911Z,92.51
2022-08-22T03:39:51.015Z,92.15
2022-08-22T03:42:30.124Z,93.24
2022-08-22T03:45:21.850Z,93.23
2022-08-22T03:48:22.226Z,92.48
2022-08-22T03:51:18.848Z,90.94
2022-08-22T03:53:45.929Z,91.69
2022-08-22T03:56:37.322Z,92.73
2022-08-22T03:59:37.128Z,91.33
2022-08-22T04:02:51.790Z,91.47
2022-08-22T04:05:43.705Z,92.46
2022-08-22T04:08:16.565Z,91.71
2022-08-22T04:11:12.120Z,91.45
2022-08-22T04:14:01.294Z,91.18
2022-08-22T04:16:50.990Z,92.46
2022-08-22T04:19:56.740Z,92.74
2022-08-22T04:22:33.396Z,91.77
2022-08-22T04:25:23.464Z,92.24
2022-08-22T04:28:13.231Z,92.32
2022-08-22T04:30:56.120Z,92.83
2022-08-22T04:33:30.421Z,92.37
2022-08-22T04:36:19.327Z,92.03
2022-08-22T04:38:52.973Z,90.73
2022-08-22T04:41:24.845Z,91.39
2022-08-22T04:43:58.781Z,91.04
2022-08-22T04:46:50.717Z,90.93
2022-08-22T04:49:29.494Z,91.34
2022-08-22T04:52:08.860Z,91.19
2022-08-22T04:54:58.028Z,90.73
2022-08-22T04:57:42.721Z,90.23
2022-08-22T05:00:11.816Z,91.43
2022-08-22T05:02:44.710Z,90.71
2022-08-22T05:05:23.677Z,91.42
2022-08-22T05:07:58.461Z,89.99
2022-08-22T05:10:33.474Z,89.91
2022-08-22T05:13:09.388Z,90.72
2022-08-22T05:15:40.762Z,91.08
2022-08-22T05:18:16.235Z,90.85
2022-08-22T05:20:49.360Z,90.07
2022-08-22T05:23:21.498Z,90.76
2022-08-22T05:25:51.671Z,90.22
2022-08-22T05:28:31.433Z,89.85
2022-08-22T05:30:59.727Z,89.88
2022-08-22T05:33:41.713Z,89.85
2022-08-22T05:36:25.570Z,89.96
2022-08-22T05:39:14.660Z,91.06
2022-08-22T05:41:42.133Z,90.66
2022-08-22T05:44:28.178Z,91.93
2022-08-22T05:47:08.075Z,91.63
2022-08-22T05:49:45.675Z,90.10
2022-08-22T05:52:33.549Z,90.53
2022-08-22T05:55:17.845Z,91.16
2022-08-22T05:57:50.023Z,91.36
2022-08-22T06:00:25.726Z,91.14
2022-08-22T06:02:55.598Z,91.29
2022-08-22T06:05:28.867Z,89.28
2022-08-22T06:08:20.157Z,90.15
2022-08-22T06:10:53.691Z,91.09
2022-08-22T06:13:24.714Z,90.34
2022-08-22T06:18:58.010Z,90.14
2022-08-22T06:21:29.153Z,90.04
2022-08-22T06:24:03.109Z,89.67
2022-08-22T06:26:39.433Z,89.27
2022-08-22T06:29:08.581Z,90.34
2022-08-22T06:31:46.734Z,91.20
2022-08-22T06:34:17.836Z,90.44
2022-08-22T06:36:49.424Z,90.57
2022-08-22T06:39:29.467Z,89.97
2022-08-22T06:42:15.893Z,89.37
2022-08-22T06:44:52.665Z,88.71
2022-08-22T06:47:28.019Z,89.48
2022-08-22T06:50:02.907Z,90.06
2022-08-22T06:52:34.469Z,88.85
2022-08-22T06:55:09.611Z,89.51
2022-08-22T06:57:45.218Z,89.68
2022-08-22T07:00:15.965Z,89.46
2022-08-22T07:02:52.877Z,89.89
2022-08-22T07:05:24.281Z,88.65
2022-08-22T07:07:52.759Z,90.25
2022-08-22T07:10:22.784Z,88.50
2022-08-22T07:12:54.036Z,88.16
2022-08-22T07:15:32.441Z,88.25
2022-08-22T07:18:02.803Z,86.71
2022-08-22T07:23:35.415Z,87.32
2022-08-22T07:26:10.956Z,89.85
2022-08-22T07:28:51.604Z,89.62
2022-08-22T07:31:46.621Z,89.24
2022-08-22T07:34:28.610Z,88.50
2022-08-22T07:37:03.974Z,89.98
2022-08-22T07:39:38.264Z,88.92
2022-08-22T07:42:11.440Z,87.89
2022-08-22T07:45:10.649Z,89.12
2022-08-22T07:47:54.511Z,88.57
2022-08-22T07:50:27.354Z,87.68
2022-08-22T07:53:01.702Z,86.42
2022-08-22T07:55:29.107Z,85.61
2022-08-22T07:58:01.833Z,85.07
2022-08-22T08:00:32.699Z,86.28
2022-08-22T08:03:06.927Z,85.04
2022-08-22T08:05:36.487Z,86.88
2022-08-22T08:08:12.256Z,86.62
2022-08-22T08:10:42.944Z,85.39
2022-08-22T08:13:20.799Z,86.09
2022-08-22T08:15:50.320Z,83.50
2022-08-22T08:18:22.018Z,82.73
2022-08-22T08:21:00.171Z,80.12
2022-08-22T08:23:31.437Z,80.25
2022-08-22T08:26:09.981Z,81.29
2022-08-22T08:28:45.772Z,79.95
2022-08-22T08:31:22.039Z,78.41
2022-08-22T08:33:53.420Z,77.90
2022-08-22T08:36:37.932Z,78.76
2022-08-22T08:39:14.335Z,79.75
2022-08-22T08:41:53.876Z,79.44
2022-08-22T08:44:39.512Z,76.04
2022-08-22T08:47:34.541Z,78.12
2022-08-22T08:50:11.845Z,78.53
2022-08-22T08:56:10.786Z,80.67
2022-08-22T08:59:03.335Z,77.97
2022-08-22T09:01:54.131Z,80.18
2022-08-22T09:04:56.113Z,80.08
2022-08-22T09:07:35.370Z,79.84
2022-08-22T09:11:12.087Z,76.85
2022-08-22T09:14:11.438Z,77.53
2022-08-22T09:20:22.631Z,75.85
2022-08-22T09:23:37.683Z,76.04
2022-08-22T09:26:17.185Z,76.32
2022-08-22T09:29:35.891Z,76.25
2022-08-22T09:32:30.023Z,79.09
2022-08-22T09:35:12.685Z,78.55
2022-08-22T09:38:18.234Z,80.05
2022-08-22T09:40:51.603Z,80.88
2022-08-22T09:43:24.542Z,79.76
2022-08-22T09:46:02.126Z,79.60
2022-08-22T09:48:45.562Z,78.04
2022-08-22T09:51:38.770Z,80.84
2022-08-22T09:57:33.653Z,78.28
2022-08-22T10:00:22.153Z,75.28
2022-08-22T10:02:52.603Z,77.26
2022-08-22T10:06:13.279Z,79.10
2022-08-22T10:11:46.228Z,75.76
2022-08-22T10:14:50.651Z,77.22
2022-08-22T10:17:30.589Z,76.06
2022-08-22T10:20:10.176Z,74.26
2022-08-22T10:23:02.970Z,76.91
2022-08-22T10:25:42.179Z,75.67
2022-08-22T10:28:15.231Z,73.70
2022-08-22T10:31:20.127Z,77.01
2022-08-22T10:33:47.263Z,75.29
2022-08-22T10:36:19.954Z,75.64
2022-08-22T10:38:53.278Z,74.98
2022-08-22T10:41:36.770Z,77.05
2022-08-22T10:44:17.302Z,78.25
2022-08-22T10:46:47.839Z,76.44
2022-08-22T10:49:29.419Z,76.37
2022-08-22T10:52:16.038Z,75.54
2022-08-22T10:55:17.485Z,75.65
2022-08-22T10:58:13.738Z,74.67
2022-08-22T11:00:58.515Z,76.37
2022-08-22T11:03:28.655Z,77.01
2022-08-22T11:06:01.610Z,73.71
2022-08-22T11:08:52.468Z,73.00
2022-08-22T11:11:23.711Z,73.47
2022-08-22T11:14:09.744Z,72.84
2022-08-22T11:16:55.573Z,71.49
2022-08-22T11:19:31.854Z,71.49
2022-08-22T11:22:33.838Z,73.61
2022-08-22T11:25:38.930Z,72.64
2022-08-22T11:28:25.415Z,75.77
2022-08-22T11:31:09.478Z,73.14
2022-08-22T11:36:56.556Z,72.34
2022-08-22T11:39:33.483Z,72.64
2022-08-22T11:42:14.502Z,72.36
2022-08-22T11:44:54.349Z,71.33
2022-08-22T11:47:26.537Z,74.66
2022-08-22T11:50:34.631Z,71.25
2022-08-22T11:53:11.440Z,72.23
2022-08-22T11:55:42.476Z,74.08
2022-08-22T12:01:34.478Z,73.24
2022-08-22T12:04:12.946Z,75.64
2022-08-22T12:07:15.525Z,73.09
2022-08-22T12:09:56.052Z,73.55
2022-08-22T12:12:32.406Z,70.87
2022-08-22T12:15:15.910Z,72.24
2022-08-22T12:18:14.362Z,71.22
2022-08-22T12:21:18.799Z,73.34
2022-08-22T12:24:11.113Z,72.05
2022-08-22T12:27:28.926Z,70.65
2022-08-22T12:30:14.170Z,70.96
2022-08-22T12:33:09.673Z,74.54
2022-08-22T12:36:18.543Z,71.18
2022-08-22T12:39:01.829Z,71.87
2022-08-22T12:41:37.936Z,69.41
2022-08-22T12:44:24.427Z,70.81
2022-08-22T12:46:55.163Z,70.63
2022-08-22T12:50:00.525Z,71.52
2022-08-22T12:52:40.389Z,71.76
2022-08-22T12:55:28.289Z,71.71
2022-08-22T12:58:18.168Z,72.43
2022-08-22T13:00:48.089Z,69.65
2022-08-22T13:03:37.583Z,70.37
2022-08-22T13:06:21.953Z,69.97
2022-08-22T13:08:50.196Z,71.27
2022-08-22T13:11:23.194Z,71.65
2022-08-22T13:13:58.742Z,71.30
2022-08-22T13:16:37.516Z,72.33
2022-08-22T13:19:16.896Z,70.61
2022-08-22T13:21:48.318Z,70.65
2022-08-22T13:24:38.491Z,69.91
2022-08-22T13:27:14.932Z,71.10
2022-08-22T13:29:57.152Z,71.89
2022-08-22T13:32:37.735Z,73.10
2022-08-22T13:35:09.759Z,74.13
2022-08-22T13:37:45.425Z,75.93
2022-08-22T13:40:29.562Z,74.12
2022-08-22T13:43:11.267Z,73.83
2022-08-22T13:45:42.007Z,74.13
2022-08-22T13:48:13.133Z,74.53
2022-08-22T13:51:04.036Z,75.92
2022-08-22T13:54:01.925Z,74.58
2022-08-22T13:56:52.293Z,76.09
2022-08-22T13:59:50.891Z,75.36
2022-08-22T14:02:34.869Z,76.10
2022-08-22T14:05:22.142Z,73.93
2022-08-22T14:08:03.097Z,73.09
2022-08-22T14:10:35.476Z,75.10
2022-08-22T14:13:48.094Z,75.09
2022-08-22T14:16:24.254Z,73.45
2022-08-22T14:18:58.066Z,73.88
2022-08-22T14:21:40.182Z,74.11
2022-08-22T14:24:25.850Z,74.02
2022-08-22T14:27:06.363Z,72.14
2022-08-22T14:32:54.388Z,75.94
2022-08-22T14:35:37.910Z,73.53
2022-08-22T14:38:17.454Z,73.46
2022-08-22T14:40:47.150Z,74.33
2022-08-22T14:43:35.888Z,74.08
2022-08-22T14:46:12.605Z,77.93
2022-08-22T14:49:18.377Z,75.09
2022-08-22T14:51:59.339Z,73.78
2022-08-22T14:54:29.107Z,74.30
2022-08-22T14:56:57.970Z,74.26
2022-08-22T14:59:30.884Z,75.71
2022-08-22T15:02:13.764Z,73.62
2022-08-22T15:04:49.774Z,73.80
2022-08-22T15:07:34.879Z,75.26
2022-08-22T15:10:26.994Z,74.02
2022-08-22T15:13:03.179Z,73.84
2022-08-22T15:15:49.772Z,75.11
2022-08-22T15:18:27.268Z,74.73
2022-08-22T15:21:10.204Z,75.94
2022-08-22T15:23:44.795Z,74.74
2022-08-22T15:26:22.482Z,75.12
2022-08-22T15:28:57.749Z,75.56
2022-08-22T15:31:25.652Z,76.49
2022-08-22T15:34:06.997Z,76.53
2022-08-22T15:36:56.303Z,77.65
2022-08-22T15:39:34.008Z,77.04
2022-08-22T15:42:05.576Z,76.62
2022-08-22T15:44:40.528Z,77.44
2022-08-22T15:47:31.504Z,76.48
2022-08-22T15:50:09.888Z,75.76
2022-08-22T15:53:13.527Z,76.52
2022-08-22T15:56:03.079Z,76.40
2022-08-22T15:58:37.293Z,75.94
2022-08-22T16:01:18.814Z,76.63
2022-08-22T16:04:14.389Z,76.84
2022-08-22T16:06:49.117Z,77.38
2022-08-22T16:09:49.255Z,76.79
2022-08-22T16:12:31.736Z,77.31
2022-08-22T16:15:01.421Z,77.30
2022-08-22T16:17:28.464Z,76.17
2022-08-22T16:20:19.522Z,77.94
2022-08-22T16:23:07.484Z,76.37
2022-08-22T16:25:47.531Z,78.48
2022-08-22T16:28:41.493Z,76.86
2022-08-22T16:31:27.433Z,77.85
2022-08-22T16:33:59.166Z,76.61
2022-08-22T16:37:03.498Z,77.72
2022-08-22T16:39:43.312Z,76.82
2022-08-22T16:42:13.659Z,78.22
2022-08-22T16:44:55.359Z,78.87
2022-08-22T16:47:36.238Z,77.39
2022-08-22T16:50:30.075Z,78.35
2022-08-22T16:53:06.036Z,77.84
2022-08-22T16:55:35.946Z,77.70
2022-08-22T16:58:44.753Z,78.51
2022-08-22T17:01:42.844Z,78.26
2022-08-22T17:04:12.963Z,78.21
2022-08-22T17:07:04.597Z,80.88
2022-08-22T17:09:50.519Z,80.17
2022-08-22T17:12:23.537Z,79.52
2022-08-22T17:15:02.622Z,78.51
2022-08-22T17:17:59.554Z,79.79
2022-08-22T17:20:44.602Z,79.22
2022-08-22T17:23:39.300Z,79.01
2022-08-22T17:26:19.224Z,79.58
2022-08-22T17:28:56.550Z,81.08
2022-08-22T17:31:55.713Z,78.44
2022-08-22T17:34:41.407Z,79.50
2022-08-22T17:37:36.418Z,79.26
2022-08-22T17:40:17.085Z,78.61
2022-08-22T17:42:59.680Z,78.79
2022-08-22T17:45:38.221Z,78.46
2022-08-22T17:48:26.588Z,80.31
2022-08-22T17:51:28.599Z,79.22
2022-08-22T17:54:17.373Z,80.37
2022-08-22T17:57:05.124Z,81.38
2022-08-22T17:59:47.554Z,78.83
2022-08-22T18:02:27.414Z,79.26
2022-08-22T18:05:35.242Z,80.08
2022-08-22T18:08:38.698Z,79.44
2022-08-22T18:11:40.767Z,79.14
2022-08-22T18:14:30.463Z,79.62
2022-08-22T18:17:00.747Z,79.42
2022-08-22T18:19:36.593Z,79.56
2022-08-22T18:22:09.560Z,80.08
2022-08-22T18:24:49.904Z,81.38
2022-08-22T18:27:34.045Z,81.09
2022-08-22T18:30:08.540Z,79.38
2022-08-22T18:32:54.114Z,79.07
2022-08-22T18:35:28.955Z,78.80
2022-08-22T18:38:19.538Z,79.87
2022-08-22T18:40:54.658Z,80.08
2022-08-22T18:43:36.865Z,79.59
2022-08-22T18:46:27.088Z,79.42
2022-08-22T18:49:14.485Z,79.26
2022-08-22T18:51:42.437Z,81.39
2022-08-22T18:54:11.184Z,81.35
2022-08-22T18:56:49.708Z,81.81
2022-08-22T18:59:29.001Z,81.43
2022-08-22T19:02:02.579Z,81.93
2022-08-22T19:05:12.035Z,81.98
2022-08-22T19:08:39.253Z,81.10
2022-08-22T19:11:35.104Z,80.71
2022-08-22T19:14:19.630Z,81.60
2022-08-22T19:17:15.049Z,81.26
2022-08-22T19:20:16.395Z,81.86
2022-08-22T19:22:44.084Z,81.54
2022-08-22T19:25:19.706Z,80.52
2022-08-22T19:28:07.750Z,79.71
2022-08-22T19:30:42.975Z,79.79
2022-08-22T19:33:19.956Z,81.10
2022-08-22T19:35:55.536Z,80.70
2022-08-22T19:38:53.716Z,81.31
2022-08-22T19:41:44.332Z,80.88
2022-08-22T19:44:17.791Z,80.82
2022-08-22T19:47:02.452Z,81.51
2022-08-22T19:49:35.150Z,81.62
2022-08-22T19:52:34.004Z,81.77
2022-08-22T19:58:32.006Z,81.62
2022-08-22T20:01:18.922Z,82.73
2022-08-22T20:03:53.238Z,81.77
2022-08-22T20:06:40.727Z,81.86
2022-08-22T20:09:29.110Z,83.12
2022-08-22T20:12:28.601Z,84.17
2022-08-22T20:14:56.280Z,84.43
2022-08-22T20:17:26.218Z,84.11
2022-08-22T20:20:17.570Z,85.46
2022-08-22T20:23:21.123Z,85.09
2022-08-22T20:25:52.885Z,85.11
2022-08-22T20:28:38.531Z,84.21
2022-08-22T20:31:27.093Z,84.49
2022-08-22T20:34:01.297Z,84.21
2022-08-22T20:37:15.786Z,85.30
2022-08-22T20:39:58.575Z,86.11
2022-08-22T20:42:28.271Z,86.48
2022-08-22T20:44:56.172Z,86.00
2022-08-22T20:47:26.069Z,86.62
2022-08-22T20:50:07.811Z,87.00
2022-08-22T20:52:38.303Z,86.97
2022-08-22T20:55:07.606Z,87.36
2022-08-22T20:57:43.821Z,87.64
2022-08-22T21:00:14.373Z,87.01
2022-08-22T21:02:48.091Z,86.81
2022-08-22T21:05:17.315Z,87.32
2022-08-22T21:07:47.086Z,87.95
2022-08-22T21:10:41.034Z,86.98
2022-08-22T21:13:29.900Z,86.77
2022-08-22T21:16:10.966Z,86.17
2022-08-22T21:18:45.867Z,85.44
2022-08-22T21:21:18.129Z,85.70
2022-08-22T21:23:48.951Z,86.09
2022-08-22T21:26:20.893Z,86.23
2022-08-22T21:28:56.042Z,86.10
2022-08-22T21:31:26.985Z,86.64
2022-08-22T21:33:55.808Z,86.11
2022-08-22T21:36:27.359Z,85.95
2022-08-22T21:39:03.580Z,85.89
2022-08-22T21:41:41.750Z,86.33
2022-08-22T21:44:27.284Z,86.70
2022-08-22T21:46:55.666Z,85.70
2022-08-22T21:49:26.669Z,85.47
2022-08-22T21:51:53.910Z,86.38
2022-08-22T21:54:35.653Z,86.42
2022-08-22T21:57:08.988Z,86.91
2022-08-22T21:59:59.800Z,87.50
2022-08-22T22:02:37.894Z,87.40
2022-08-22T22:05:11.504Z,87.58
2022-08-22T22:07:41.283Z,87.30
2022-08-22T22:10:10.985Z,87.69
2022-08-22T22:12:40.780Z,87.12
2022-08-22T22:15:13.812Z,86.38
2022-08-22T22:17:40.979Z,86.63
2022-08-22T22:20:08.987Z,86.75
2022-08-22T22:22:37.051Z,86.75
2022-08-22T22:25:39.597Z,87.31
2022-08-22T22:28:05.372Z,87.28
2022-08-22T22:30:32.674Z,86.89
2022-08-22T22:32:59.792Z,86.47
2022-08-22T22:35:27.094Z,87.29
2022-08-22T22:37:55.924Z,87.48
2022-08-22T22:40:24.176Z,87.41
2022-08-22T22:42:51.393Z,87.78
2022-08-22T22:45:18.765Z,87.74
2022-08-22T22:47:45.899Z,87.54
2022-08-22T22:50:13.088Z,86.95
2022-08-22T22:52:40.934Z,86.84
2022-08-22T22:55:09.443Z,87.12
2022-08-22T22:57:39.749Z,87.25
2022-08-22T23:00:12.499Z,86.83
2022-08-22T23:02:40.059Z,85.60
2022-08-22T23:05:08.737Z,85.88
2022-08-22T23:07:38.321Z,86.21
2022-08-22T23:10:07.349Z,86.15
2022-08-22T23:12:36.426Z,86.49
2022-08-22T23:15:06.345Z,86.83
2022-08-22T23:17:34.706Z,86.20
2022-08-22T23:20:02.292Z,86.48
2022-08-22T23:22:30.218Z,87.11
2022-08-22T23:24:57.350Z,86.54
2022-08-22T23:27:24.480Z,86.85
2022-08-22T23:29:52.887Z,86.63
2022-08-22T23:32:20.562Z,86.38
2022-08-22T23:34:48.809Z,86.91
2022-08-22T23:37:19.900Z,86.40
2022-08-22T23:39:48.150Z,85.83
2022-08-22T23:42:15.475Z,86.13
2022-08-22T23:44:45.222Z,86.59
2022-08-22T23:47:14.003Z,86.86
2022-08-22T23:49:42.965Z,86.69
2022-08-22T23:52:11.925Z,86.93
2022-08-22T23:54:39.198Z,86.68
2022-08-22T23:57:11.658Z,86.16
2022-08-22T23:59:46.336Z,86.61
